Reliance, Texas
Current Conditions -  °F | °C
As of 7:53 AM on Wednesday 26 Nov 2014 (Local Time) from KCLL Reporting Station
Clear Clear  
Wind Chill: 43°   Ceiling: Unl
Heat Index: 47°   Visibility: 10mi
Dew Point: 35°   Wind: 9mph
Humidity: 63%   Direction: 200°SSW
Pressure: 30.19"   Gusts: NA
Location:  30.6361°N, 96.3666°W
Report Text: KCLL 261353Z 20008KT 10SM CLR 08/02 A3019 RMK AO2 SLP222 T00830017
Loading
Personal Weather Stations






























Interactive Weather Map New forecast layout! Learn more

10-Day Weather Forecast

Advertisements
Track Severe Weather on mobile